Huvudsida
METAR-TAF:

METAR-TAF

Flygplatser :

Maracaibo, Venezuela

latitud: 10-34N, longitud: 071-44W, höjd: 66 m

Aktuellt väderrapport

Denna rapport gjordes för 36 minuter sedan, klockan 22:02 UTC
Temperatur
Tryck

METAR: SVMC 132202Z AUTO NIL

Tid: 18:38 (22:38 UTC)

Väderprognos

Denna rapport gjordes för 6 timmar och 38 minuter sedan, klockan 16:00 UTC
Prognos gäller från 13 kl. 18 UTC till 14 kl. 18 UTC
Vind 6 kt från syd
Sikt 10 km eller mer
Spridda moln på en höjd av 1600 ft
Blir
från 13 kl. 18 UTC till 13 kl. 22 UTC
Vind 4 kt från syd/sydost
Få moln på en höjd av 1600 ft
Spridda moln på en höjd av 10000 ft

TAF: SVMC 131600Z 1318/1418 18006KT 9999 SCT016 TX32/19Z TN23/08Z BECMG 1318/1322 16004KT FEW016 SCT100

Aktuella väderrapporter och prognoser från 4000 flygplatser (METAR- och TAF-rapporter).

De tillgängliga stationerna syns som gula och röda prickar på kartan.

För musen över prickarna för att se namnen på stationerna.

Klicka sedan för att få väderrapporter och prognoser.

För att ändra kartan: Klicka på de gröna knapparna med ett svart kors på för att zooma in; den gröna knappen med ett streck på för att zooma ut; eller på de gröna pilarna för angränsande kartor.


METAR-TAF: